sensor_id;sensor_type;location;lat;lon;timestamp;P1;durP1;ratioP1;P2;durP2;ratioP2
5831;SDS011;50943;51.448;7.646;2022-10-31T00:01:10;15.00;;;5.50;;
5831;SDS011;50943;51.448;7.646;2022-10-31T00:03:38;13.70;;;5.80;;
5831;SDS011;50943;51.448;7.646;2022-10-31T00:06:04;14.77;;;6.90;;
5831;SDS011;50943;51.448;7.646;2022-10-31T00:08:31;11.93;;;5.90;;
5831;SDS011;50943;51.448;7.646;2022-10-31T00:10:59;10.37;;;5.70;;
5831;SDS011;50943;51.448;7.646;2022-10-31T00:13:26;11.03;;;5.87;;
5831;SDS011;50943;51.448;7.646;2022-10-31T00:15:52;11.93;;;5.90;;
5831;SDS011;50943;51.448;7.646;2022-10-31T00:18:19;12.63;;;4.97;;
5831;SDS011;50943;51.448;7.646;2022-10-31T00:20:45;10.67;;;5.17;;
5831;SDS011;50943;51.448;7.646;2022-10-31T00:23:12;10.10;;;5.73;;
5831;SDS011;50943;51.448;7.646;2022-10-31T00:25:39;10.63;;;5.83;;
5831;SDS011;50943;51.448;7.646;2022-10-31T00:28:08;14.27;;;5.80;;
5831;SDS011;50943;51.448;7.646;2022-10-31T00:30:36;10.43;;;5.57;;
5831;SDS011;50943;51.448;7.646;2022-10-31T00:33:03;11.93;;;5.30;;
5831;SDS011;50943;51.448;7.646;2022-10-31T00:35:30;13.07;;;5.40;;
5831;SDS011;50943;51.448;7.646;2022-10-31T00:37:57;11.97;;;5.30;;
5831;SDS011;50943;51.448;7.646;2022-10-31T00:40:23;11.23;;;5.73;;
5831;SDS011;50943;51.448;7.646;2022-10-31T00:42:50;13.37;;;6.80;;
5831;SDS011;50943;51.448;7.646;2022-10-31T00:45:18;13.00;;;5.63;;
5831;SDS011;50943;51.448;7.646;2022-10-31T00:47:44;10.13;;;5.70;;
5831;SDS011;50943;51.448;7.646;2022-10-31T00:50:11;11.37;;;5.60;;
5831;SDS011;50943;51.448;7.646;2022-10-31T00:52:37;14.37;;;5.70;;
5831;SDS011;50943;51.448;7.646;2022-10-31T00:55:04;15.77;;;6.30;;
5831;SDS011;50943;51.448;7.646;2022-10-31T00:57:31;12.30;;;5.50;;
5831;SDS011;50943;51.448;7.646;2022-10-31T00:59:57;15.60;;;6.00;;
5831;SDS011;50943;51.448;7.646;2022-10-31T01:02:26;12.90;;;6.90;;
5831;SDS011;50943;51.448;7.646;2022-10-31T01:04:52;17.20;;;6.70;;
5831;SDS011;50943;51.448;7.646;2022-10-31T01:07:19;11.40;;;6.17;;
5831;SDS011;50943;51.448;7.646;2022-10-31T01:09:45;20.50;;;7.30;;
5831;SDS011;50943;51.448;7.646;2022-10-31T01:12:12;16.20;;;7.00;;
5831;SDS011;50943;51.448;7.646;2022-10-31T01:14:42;14.83;;;7.37;;
5831;SDS011;50943;51.448;7.646;2022-10-31T01:17:09;10.73;;;6.27;;
5831;SDS011;50943;51.448;7.646;2022-10-31T01:19:38;15.30;;;6.60;;
5831;SDS011;50943;51.448;7.646;2022-10-31T01:22:04;11.60;;;6.23;;
5831;SDS011;50943;51.448;7.646;2022-10-31T01:24:31;19.10;;;7.90;;
5831;SDS011;50943;51.448;7.646;2022-10-31T01:26:58;12.80;;;6.70;;
5831;SDS011;50943;51.448;7.646;2022-10-31T01:29:24;12.70;;;6.47;;
5831;SDS011;50943;51.448;7.646;2022-10-31T01:31:51;12.60;;;6.20;;
5831;SDS011;50943;51.448;7.646;2022-10-31T01:34:17;9.83;;;5.43;;
5831;SDS011;50943;51.448;7.646;2022-10-31T01:36:46;18.27;;;5.90;;
5831;SDS011;50943;51.448;7.646;2022-10-31T01:39:16;17.13;;;5.73;;
5831;SDS011;50943;51.448;7.646;2022-10-31T01:41:44;12.90;;;5.60;;
5831;SDS011;50943;51.448;7.646;2022-10-31T01:47:16;15.03;;;6.50;;
5831;SDS011;50943;51.448;7.646;2022-10-31T01:49:46;17.93;;;6.70;;
5831;SDS011;50943;51.448;7.646;2022-10-31T01:52:17;16.37;;;6.57;;
5831;SDS011;50943;51.448;7.646;2022-10-31T01:54:47;12.17;;;6.10;;
5831;SDS011;50943;51.448;7.646;2022-10-31T01:57:15;13.80;;;6.07;;
5831;SDS011;50943;51.448;7.646;2022-10-31T01:59:45;14.17;;;6.33;;
5831;SDS011;50943;51.448;7.646;2022-10-31T02:02:13;10.97;;;5.37;;
5831;SDS011;50943;51.448;7.646;2022-10-31T02:04:41;10.40;;;5.20;;
5831;SDS011;50943;51.448;7.646;2022-10-31T02:07:09;12.17;;;5.80;;
5831;SDS011;50943;51.448;7.646;2022-10-31T02:09:40;14.27;;;6.10;;
5831;SDS011;50943;51.448;7.646;2022-10-31T02:12:07;14.23;;;6.30;;
5831;SDS011;50943;51.448;7.646;2022-10-31T02:14:35;11.47;;;5.50;;
5831;SDS011;50943;51.448;7.646;2022-10-31T02:17:03;11.20;;;5.57;;
5831;SDS011;50943;51.448;7.646;2022-10-31T02:19:31;8.70;;;5.70;;
5831;SDS011;50943;51.448;7.646;2022-10-31T02:22:02;16.77;;;5.70;;
5831;SDS011;50943;51.448;7.646;2022-10-31T02:24:42;15.40;;;6.30;;
5831;SDS011;50943;51.448;7.646;2022-10-31T02:27:16;12.27;;;6.00;;
5831;SDS011;50943;51.448;7.646;2022-10-31T02:30:07;18.00;;;6.73;;
5831;SDS011;50943;51.448;7.646;2022-10-31T02:32:48;10.87;;;6.00;;
5831;SDS011;50943;51.448;7.646;2022-10-31T02:35:24;18.50;;;6.80;;
5831;SDS011;50943;51.448;7.646;2022-10-31T02:38:01;12.23;;;6.37;;
5831;SDS011;50943;51.448;7.646;2022-10-31T02:40:32;18.40;;;7.60;;
5831;SDS011;50943;51.448;7.646;2022-10-31T02:43:02;15.77;;;7.50;;
5831;SDS011;50943;51.448;7.646;2022-10-31T02:45:35;16.43;;;7.83;;
5831;SDS011;50943;51.448;7.646;2022-10-31T02:48:09;11.07;;;7.57;;
5831;SDS011;50943;51.448;7.646;2022-10-31T02:50:39;18.33;;;7.40;;
5831;SDS011;50943;51.448;7.646;2022-10-31T02:53:07;17.23;;;8.10;;
5831;SDS011;50943;51.448;7.646;2022-10-31T02:55:51;12.07;;;6.73;;
5831;SDS011;50943;51.448;7.646;2022-10-31T02:58:23;15.70;;;7.60;;
5831;SDS011;50943;51.448;7.646;2022-10-31T03:01:06;16.13;;;9.03;;
5831;SDS011;50943;51.448;7.646;2022-10-31T03:03:49;15.03;;;8.70;;
5831;SDS011;50943;51.448;7.646;2022-10-31T03:06:23;21.00;;;10.57;;
5831;SDS011;50943;51.448;7.646;2022-10-31T03:08:55;24.53;;;10.27;;
5831;SDS011;50943;51.448;7.646;2022-10-31T03:11:28;20.57;;;7.40;;
5831;SDS011;50943;51.448;7.646;2022-10-31T03:13:59;16.23;;;7.13;;
5831;SDS011;50943;51.448;7.646;2022-10-31T03:16:32;13.43;;;6.30;;
5831;SDS011;50943;51.448;7.646;2022-10-31T03:19:05;12.93;;;7.13;;
5831;SDS011;50943;51.448;7.646;2022-10-31T03:21:35;12.43;;;6.83;;
5831;SDS011;50943;51.448;7.646;2022-10-31T03:24:05;20.47;;;7.90;;
5831;SDS011;50943;51.448;7.646;2022-10-31T03:26:34;12.07;;;6.93;;
5831;SDS011;50943;51.448;7.646;2022-10-31T03:29:02;15.57;;;6.63;;
5831;SDS011;50943;51.448;7.646;2022-10-31T03:31:32;15.03;;;6.80;;
5831;SDS011;50943;51.448;7.646;2022-10-31T03:34:01;11.33;;;6.47;;
5831;SDS011;50943;51.448;7.646;2022-10-31T03:36:31;12.57;;;7.10;;
5831;SDS011;50943;51.448;7.646;2022-10-31T03:38:59;19.53;;;7.00;;
5831;SDS011;50943;51.448;7.646;2022-10-31T03:41:28;15.80;;;7.50;;
5831;SDS011;50943;51.448;7.646;2022-10-31T03:43:59;23.30;;;8.40;;
5831;SDS011;50943;51.448;7.646;2022-10-31T03:46:28;16.83;;;7.20;;
5831;SDS011;50943;51.448;7.646;2022-10-31T03:48:55;12.80;;;8.10;;
5831;SDS011;50943;51.448;7.646;2022-10-31T03:51:22;19.43;;;8.97;;
5831;SDS011;50943;51.448;7.646;2022-10-31T03:53:56;16.80;;;8.43;;
5831;SDS011;50943;51.448;7.646;2022-10-31T03:56:26;14.77;;;8.97;;
5831;SDS011;50943;51.448;7.646;2022-10-31T03:58:58;19.10;;;8.77;;
5831;SDS011;50943;51.448;7.646;2022-10-31T04:01:28;14.17;;;7.77;;
5831;SDS011;50943;51.448;7.646;2022-10-31T04:03:56;16.80;;;7.73;;
5831;SDS011;50943;51.448;7.646;2022-10-31T04:06:24;17.60;;;8.57;;
5831;SDS011;50943;51.448;7.646;2022-10-31T04:08:52;16.47;;;7.80;;
5831;SDS011;50943;51.448;7.646;2022-10-31T04:11:23;11.33;;;6.80;;
5831;SDS011;50943;51.448;7.646;2022-10-31T04:14:00;16.33;;;7.07;;
5831;SDS011;50943;51.448;7.646;2022-10-31T04:16:28;15.83;;;7.90;;
5831;SDS011;50943;51.448;7.646;2022-10-31T04:18:55;15.43;;;8.80;;
5831;SDS011;50943;51.448;7.646;2022-10-31T04:21:26;19.83;;;8.33;;
5831;SDS011;50943;51.448;7.646;2022-10-31T04:23:53;16.80;;;8.67;;
5831;SDS011;50943;51.448;7.646;2022-10-31T04:26:21;17.53;;;9.27;;
5831;SDS011;50943;51.448;7.646;2022-10-31T04:28:47;21.53;;;8.20;;
5831;SDS011;50943;51.448;7.646;2022-10-31T04:31:14;21.03;;;9.83;;
5831;SDS011;50943;51.448;7.646;2022-10-31T04:33:41;18.27;;;8.77;;
5831;SDS011;50943;51.448;7.646;2022-10-31T04:36:07;19.20;;;8.70;;
5831;SDS011;50943;51.448;7.646;2022-10-31T04:38:34;23.03;;;10.47;;
5831;SDS011;50943;51.448;7.646;2022-10-31T04:41:01;15.00;;;8.93;;
5831;SDS011;50943;51.448;7.646;2022-10-31T04:43:28;18.27;;;10.13;;
5831;SDS011;50943;51.448;7.646;2022-10-31T04:45:55;23.27;;;10.43;;
5831;SDS011;50943;51.448;7.646;2022-10-31T04:48:22;20.63;;;10.43;;
5831;SDS011;50943;51.448;7.646;2022-10-31T04:50:48;19.20;;;10.40;;
5831;SDS011;50943;51.448;7.646;2022-10-31T04:53:15;19.40;;;10.43;;
5831;SDS011;50943;51.448;7.646;2022-10-31T04:55:41;20.60;;;11.80;;
5831;SDS011;50943;51.448;7.646;2022-10-31T04:58:08;20.70;;;10.90;;
5831;SDS011;50943;51.448;7.646;2022-10-31T05:00:36;23.50;;;11.70;;
5831;SDS011;50943;51.448;7.646;2022-10-31T05:03:03;22.97;;;11.10;;
5831;SDS011;50943;51.448;7.646;2022-10-31T05:05:30;18.80;;;10.03;;
5831;SDS011;50943;51.448;7.646;2022-10-31T05:07:57;29.00;;;11.93;;
5831;SDS011;50943;51.448;7.646;2022-10-31T05:10:25;17.23;;;9.23;;
5831;SDS011;50943;51.448;7.646;2022-10-31T05:12:53;23.30;;;10.53;;
5831;SDS011;50943;51.448;7.646;2022-10-31T05:15:22;25.17;;;11.47;;
5831;SDS011;50943;51.448;7.646;2022-10-31T05:17:51;20.63;;;11.30;;
5831;SDS011;50943;51.448;7.646;2022-10-31T05:20:19;28.10;;;12.20;;
5831;SDS011;50943;51.448;7.646;2022-10-31T05:22:48;20.90;;;9.73;;
5831;SDS011;50943;51.448;7.646;2022-10-31T05:25:16;18.53;;;10.20;;
5831;SDS011;50943;51.448;7.646;2022-10-31T05:27:44;25.20;;;12.90;;
5831;SDS011;50943;51.448;7.646;2022-10-31T05:30:12;21.27;;;10.93;;
5831;SDS011;50943;51.448;7.646;2022-10-31T05:32:39;19.30;;;10.07;;
5831;SDS011;50943;51.448;7.646;2022-10-31T05:35:08;20.93;;;10.77;;
5831;SDS011;50943;51.448;7.646;2022-10-31T05:37:36;22.93;;;11.03;;
5831;SDS011;50943;51.448;7.646;2022-10-31T05:40:04;22.57;;;11.10;;
5831;SDS011;50943;51.448;7.646;2022-10-31T05:42:32;19.50;;;11.57;;
5831;SDS011;50943;51.448;7.646;2022-10-31T05:44:58;24.77;;;12.13;;
5831;SDS011;50943;51.448;7.646;2022-10-31T05:47:25;21.57;;;11.40;;
5831;SDS011;50943;51.448;7.646;2022-10-31T05:49:52;21.07;;;10.80;;
5831;SDS011;50943;51.448;7.646;2022-10-31T05:52:20;26.40;;;11.53;;
5831;SDS011;50943;51.448;7.646;2022-10-31T05:54:47;20.00;;;10.03;;
5831;SDS011;50943;51.448;7.646;2022-10-31T05:57:13;29.43;;;11.60;;
5831;SDS011;50943;51.448;7.646;2022-10-31T05:59:40;21.83;;;11.13;;
5831;SDS011;50943;51.448;7.646;2022-10-31T06:02:06;25.43;;;10.80;;
5831;SDS011;50943;51.448;7.646;2022-10-31T06:04:33;19.10;;;10.20;;
5831;SDS011;50943;51.448;7.646;2022-10-31T06:07:00;21.87;;;11.03;;
5831;SDS011;50943;51.448;7.646;2022-10-31T06:09:28;25.10;;;12.00;;
5831;SDS011;50943;51.448;7.646;2022-10-31T06:11:54;21.50;;;10.60;;
5831;SDS011;50943;51.448;7.646;2022-10-31T06:14:21;18.93;;;10.83;;
5831;SDS011;50943;51.448;7.646;2022-10-31T06:16:47;17.40;;;10.73;;
5831;SDS011;50943;51.448;7.646;2022-10-31T06:19:14;23.73;;;10.73;;
5831;SDS011;50943;51.448;7.646;2022-10-31T06:21:41;26.23;;;11.50;;
5831;SDS011;50943;51.448;7.646;2022-10-31T06:24:07;23.67;;;11.33;;
5831;SDS011;50943;51.448;7.646;2022-10-31T06:26:35;22.13;;;10.80;;
5831;SDS011;50943;51.448;7.646;2022-10-31T06:29:02;26.50;;;10.50;;
5831;SDS011;50943;51.448;7.646;2022-10-31T06:31:29;18.87;;;10.40;;
5831;SDS011;50943;51.448;7.646;2022-10-31T06:33:56;22.10;;;10.53;;
5831;SDS011;50943;51.448;7.646;2022-10-31T06:36:22;27.70;;;12.40;;
5831;SDS011;50943;51.448;7.646;2022-10-31T06:38:49;18.73;;;9.93;;
5831;SDS011;50943;51.448;7.646;2022-10-31T06:41:15;20.27;;;11.00;;
5831;SDS011;50943;51.448;7.646;2022-10-31T06:43:46;23.23;;;10.47;;
5831;SDS011;50943;51.448;7.646;2022-10-31T06:46:13;19.10;;;10.77;;
5831;SDS011;50943;51.448;7.646;2022-10-31T06:48:40;17.90;;;10.07;;
5831;SDS011;50943;51.448;7.646;2022-10-31T06:51:07;23.73;;;10.87;;
5831;SDS011;50943;51.448;7.646;2022-10-31T06:53:34;24.03;;;10.63;;
5831;SDS011;50943;51.448;7.646;2022-10-31T06:56:01;23.80;;;11.47;;
5831;SDS011;50943;51.448;7.646;2022-10-31T06:58:27;22.10;;;11.00;;
5831;SDS011;50943;51.448;7.646;2022-10-31T07:00:56;27.70;;;11.60;;
5831;SDS011;50943;51.448;7.646;2022-10-31T07:03:25;19.37;;;10.60;;
5831;SDS011;50943;51.448;7.646;2022-10-31T07:05:54;26.33;;;12.60;;
5831;SDS011;50943;51.448;7.646;2022-10-31T07:08:21;17.27;;;10.17;;
5831;SDS011;50943;51.448;7.646;2022-10-31T07:10:50;21.63;;;10.40;;
5831;SDS011;50943;51.448;7.646;2022-10-31T07:13:18;17.73;;;10.37;;
5831;SDS011;50943;51.448;7.646;2022-10-31T07:15:49;21.77;;;11.23;;
5831;SDS011;50943;51.448;7.646;2022-10-31T07:18:17;18.97;;;10.40;;
5831;SDS011;50943;51.448;7.646;2022-10-31T07:20:44;16.73;;;9.80;;
5831;SDS011;50943;51.448;7.646;2022-10-31T07:23:10;18.67;;;10.07;;
5831;SDS011;50943;51.448;7.646;2022-10-31T07:25:37;28.20;;;12.00;;
5831;SDS011;50943;51.448;7.646;2022-10-31T07:28:04;25.20;;;12.20;;
5831;SDS011;50943;51.448;7.646;2022-10-31T07:30:31;22.63;;;12.43;;
5831;SDS011;50943;51.448;7.646;2022-10-31T07:32:58;22.50;;;12.10;;
5831;SDS011;50943;51.448;7.646;2022-10-31T07:35:26;27.00;;;11.47;;
5831;SDS011;50943;51.448;7.646;2022-10-31T07:37:54;22.23;;;10.80;;
5831;SDS011;50943;51.448;7.646;2022-10-31T07:40:22;19.97;;;10.23;;
5831;SDS011;50943;51.448;7.646;2022-10-31T07:42:50;19.17;;;9.70;;
5831;SDS011;50943;51.448;7.646;2022-10-31T07:45:18;22.70;;;10.10;;
5831;SDS011;50943;51.448;7.646;2022-10-31T07:47:46;26.67;;;11.70;;
5831;SDS011;50943;51.448;7.646;2022-10-31T07:50:14;17.57;;;9.50;;
5831;SDS011;50943;51.448;7.646;2022-10-31T07:52:45;19.30;;;9.03;;
5831;SDS011;50943;51.448;7.646;2022-10-31T07:55:12;18.40;;;9.40;;
5831;SDS011;50943;51.448;7.646;2022-10-31T07:57:39;22.60;;;9.77;;
5831;SDS011;50943;51.448;7.646;2022-10-31T08:00:06;23.03;;;10.10;;
5831;SDS011;50943;51.448;7.646;2022-10-31T08:02:34;22.27;;;10.40;;
5831;SDS011;50943;51.448;7.646;2022-10-31T08:05:01;19.40;;;9.67;;
5831;SDS011;50943;51.448;7.646;2022-10-31T08:07:28;21.67;;;9.43;;
5831;SDS011;50943;51.448;7.646;2022-10-31T08:09:56;18.23;;;9.97;;
5831;SDS011;50943;51.448;7.646;2022-10-31T08:12:23;15.73;;;8.13;;
5831;SDS011;50943;51.448;7.646;2022-10-31T08:14:49;22.47;;;8.50;;
5831;SDS011;50943;51.448;7.646;2022-10-31T08:17:16;20.97;;;9.37;;
5831;SDS011;50943;51.448;7.646;2022-10-31T08:19:43;20.20;;;10.67;;
5831;SDS011;50943;51.448;7.646;2022-10-31T08:22:09;20.60;;;9.93;;
5831;SDS011;50943;51.448;7.646;2022-10-31T08:24:36;21.57;;;9.30;;
5831;SDS011;50943;51.448;7.646;2022-10-31T08:27:05;16.93;;;10.07;;
5831;SDS011;50943;51.448;7.646;2022-10-31T08:29:31;22.97;;;10.13;;
5831;SDS011;50943;51.448;7.646;2022-10-31T08:31:58;24.17;;;10.30;;
5831;SDS011;50943;51.448;7.646;2022-10-31T08:34:25;21.87;;;10.97;;
5831;SDS011;50943;51.448;7.646;2022-10-31T08:36:52;22.10;;;9.50;;
5831;SDS011;50943;51.448;7.646;2022-10-31T08:39:18;18.67;;;10.67;;
5831;SDS011;50943;51.448;7.646;2022-10-31T08:41:45;21.87;;;10.17;;
5831;SDS011;50943;51.448;7.646;2022-10-31T08:44:13;25.00;;;10.83;;
5831;SDS011;50943;51.448;7.646;2022-10-31T08:46:41;19.57;;;9.80;;
5831;SDS011;50943;51.448;7.646;2022-10-31T08:49:07;20.90;;;10.50;;
5831;SDS011;50943;51.448;7.646;2022-10-31T08:51:34;16.23;;;8.87;;
5831;SDS011;50943;51.448;7.646;2022-10-31T08:54:01;25.23;;;12.10;;
5831;SDS011;50943;51.448;7.646;2022-10-31T08:56:27;26.37;;;9.20;;
5831;SDS011;50943;51.448;7.646;2022-10-31T08:58:54;18.03;;;8.83;;
5831;SDS011;50943;51.448;7.646;2022-10-31T09:01:22;20.03;;;9.20;;
5831;SDS011;50943;51.448;7.646;2022-10-31T09:03:48;17.37;;;9.20;;
5831;SDS011;50943;51.448;7.646;2022-10-31T09:06:15;20.97;;;10.63;;
5831;SDS011;50943;51.448;7.646;2022-10-31T09:08:41;19.13;;;9.90;;
5831;SDS011;50943;51.448;7.646;2022-10-31T09:11:08;26.00;;;11.50;;
5831;SDS011;50943;51.448;7.646;2022-10-31T09:13:34;23.13;;;11.80;;
5831;SDS011;50943;51.448;7.646;2022-10-31T09:16:01;24.00;;;13.37;;
5831;SDS011;50943;51.448;7.646;2022-10-31T09:18:29;27.57;;;12.77;;
5831;SDS011;50943;51.448;7.646;2022-10-31T09:20:57;25.30;;;13.90;;
5831;SDS011;50943;51.448;7.646;2022-10-31T09:23:24;19.67;;;11.27;;
5831;SDS011;50943;51.448;7.646;2022-10-31T09:25:51;23.43;;;11.33;;
5831;SDS011;50943;51.448;7.646;2022-10-31T09:28:19;21.43;;;11.27;;
5831;SDS011;50943;51.448;7.646;2022-10-31T09:30:48;23.83;;;10.00;;
5831;SDS011;50943;51.448;7.646;2022-10-31T09:33:16;19.80;;;11.27;;
5831;SDS011;50943;51.448;7.646;2022-10-31T09:35:44;19.50;;;9.70;;
5831;SDS011;50943;51.448;7.646;2022-10-31T09:38:12;22.53;;;11.03;;
5831;SDS011;50943;51.448;7.646;2022-10-31T09:40:41;20.10;;;9.93;;
5831;SDS011;50943;51.448;7.646;2022-10-31T09:43:12;21.30;;;11.23;;
5831;SDS011;50943;51.448;7.646;2022-10-31T09:45:43;21.37;;;10.53;;
5831;SDS011;50943;51.448;7.646;2022-10-31T09:48:27;17.30;;;11.13;;
5831;SDS011;50943;51.448;7.646;2022-10-31T09:51:01;18.80;;;10.10;;
5831;SDS011;50943;51.448;7.646;2022-10-31T09:53:32;20.10;;;11.30;;
5831;SDS011;50943;51.448;7.646;2022-10-31T09:56:02;19.20;;;10.60;;
5831;SDS011;50943;51.448;7.646;2022-10-31T09:58:32;31.53;;;11.23;;
5831;SDS011;50943;51.448;7.646;2022-10-31T10:01:04;21.83;;;11.87;;
5831;SDS011;50943;51.448;7.646;2022-10-31T10:03:33;26.83;;;10.83;;
5831;SDS011;50943;51.448;7.646;2022-10-31T10:06:06;24.33;;;11.80;;
5831;SDS011;50943;51.448;7.646;2022-10-31T10:08:36;34.77;;;12.80;;
5831;SDS011;50943;51.448;7.646;2022-10-31T10:11:08;19.97;;;10.80;;
5831;SDS011;50943;51.448;7.646;2022-10-31T10:14:00;26.30;;;12.70;;
5831;SDS011;50943;51.448;7.646;2022-10-31T10:16:41;23.40;;;11.43;;
5831;SDS011;50943;51.448;7.646;2022-10-31T10:19:18;25.93;;;10.93;;
5831;SDS011;50943;51.448;7.646;2022-10-31T10:21:55;23.00;;;12.57;;
5831;SDS011;50943;51.448;7.646;2022-10-31T10:24:27;28.40;;;11.97;;
5831;SDS011;50943;51.448;7.646;2022-10-31T10:27:03;23.00;;;11.23;;
5831;SDS011;50943;51.448;7.646;2022-10-31T10:29:34;26.27;;;11.83;;
5831;SDS011;50943;51.448;7.646;2022-10-31T10:32:05;23.53;;;11.10;;
5831;SDS011;50943;51.448;7.646;2022-10-31T10:34:37;22.83;;;10.67;;
5831;SDS011;50943;51.448;7.646;2022-10-31T10:37:12;22.40;;;11.53;;
5831;SDS011;50943;51.448;7.646;2022-10-31T10:39:46;25.67;;;10.77;;
5831;SDS011;50943;51.448;7.646;2022-10-31T10:42:15;21.13;;;10.27;;
5831;SDS011;50943;51.448;7.646;2022-10-31T10:45:00;24.40;;;11.57;;
5831;SDS011;50943;51.448;7.646;2022-10-31T10:47:52;23.07;;;11.20;;
5831;SDS011;50943;51.448;7.646;2022-10-31T10:50:22;25.70;;;11.27;;
5831;SDS011;50943;51.448;7.646;2022-10-31T10:52:56;25.10;;;11.90;;
5831;SDS011;50943;51.448;7.646;2022-10-31T10:55:30;21.07;;;10.57;;
5831;SDS011;50943;51.448;7.646;2022-10-31T10:58:00;20.37;;;9.77;;
5831;SDS011;50943;51.448;7.646;2022-10-31T11:00:29;24.43;;;10.90;;
5831;SDS011;50943;51.448;7.646;2022-10-31T11:02:57;22.37;;;11.10;;
5831;SDS011;50943;51.448;7.646;2022-10-31T11:05:25;23.60;;;11.33;;
5831;SDS011;50943;51.448;7.646;2022-10-31T11:07:57;23.20;;;10.90;;
5831;SDS011;50943;51.448;7.646;2022-10-31T11:10:24;29.37;;;11.50;;
5831;SDS011;50943;51.448;7.646;2022-10-31T11:12:59;20.07;;;9.57;;
5831;SDS011;50943;51.448;7.646;2022-10-31T11:15:31;19.40;;;10.60;;
5831;SDS011;50943;51.448;7.646;2022-10-31T11:18:00;25.63;;;11.00;;
5831;SDS011;50943;51.448;7.646;2022-10-31T11:20:31;28.00;;;11.40;;
5831;SDS011;50943;51.448;7.646;2022-10-31T11:23:16;21.37;;;10.50;;
5831;SDS011;50943;51.448;7.646;2022-10-31T11:25:47;18.90;;;9.43;;
5831;SDS011;50943;51.448;7.646;2022-10-31T11:28:15;34.13;;;12.50;;
5831;SDS011;50943;51.448;7.646;2022-10-31T11:30:42;25.70;;;10.80;;
5831;SDS011;50943;51.448;7.646;2022-10-31T11:33:13;24.80;;;11.90;;
5831;SDS011;50943;51.448;7.646;2022-10-31T11:35:43;21.60;;;10.77;;
5831;SDS011;50943;51.448;7.646;2022-10-31T11:38:12;29.97;;;11.47;;
5831;SDS011;50943;51.448;7.646;2022-10-31T11:40:54;25.30;;;10.40;;
5831;SDS011;50943;51.448;7.646;2022-10-31T11:43:23;26.17;;;10.97;;
5831;SDS011;50943;51.448;7.646;2022-10-31T11:45:50;26.63;;;12.67;;
5831;SDS011;50943;51.448;7.646;2022-10-31T11:48:17;23.50;;;11.63;;
5831;SDS011;50943;51.448;7.646;2022-10-31T11:50:51;22.40;;;11.03;;
5831;SDS011;50943;51.448;7.646;2022-10-31T11:53:22;22.37;;;11.20;;
5831;SDS011;50943;51.448;7.646;2022-10-31T11:55:59;29.53;;;11.10;;
5831;SDS011;50943;51.448;7.646;2022-10-31T11:58:30;25.80;;;11.90;;
5831;SDS011;50943;51.448;7.646;2022-10-31T12:00:57;26.47;;;12.37;;
5831;SDS011;50943;51.448;7.646;2022-10-31T12:03:27;25.13;;;11.87;;
5831;SDS011;50943;51.448;7.646;2022-10-31T12:06:00;21.87;;;11.70;;
5831;SDS011;50943;51.448;7.646;2022-10-31T12:08:31;21.30;;;11.70;;
5831;SDS011;50943;51.448;7.646;2022-10-31T12:11:02;18.20;;;10.70;;
5831;SDS011;50943;51.448;7.646;2022-10-31T12:13:37;30.50;;;14.00;;
5831;SDS011;50943;51.448;7.646;2022-10-31T12:16:07;19.57;;;10.40;;
5831;SDS011;50943;51.448;7.646;2022-10-31T12:18:41;23.47;;;10.67;;
5831;SDS011;50943;51.448;7.646;2022-10-31T12:21:19;18.10;;;10.30;;
5831;SDS011;50943;51.448;7.646;2022-10-31T12:23:57;19.93;;;9.37;;
5831;SDS011;50943;51.448;7.646;2022-10-31T12:26:33;21.03;;;8.90;;
5831;SDS011;50943;51.448;7.646;2022-10-31T12:29:11;22.63;;;8.90;;
5831;SDS011;50943;51.448;7.646;2022-10-31T12:31:48;24.10;;;9.50;;
5831;SDS011;50943;51.448;7.646;2022-10-31T12:34:30;22.60;;;9.73;;
5831;SDS011;50943;51.448;7.646;2022-10-31T12:37:05;19.63;;;9.83;;
5831;SDS011;50943;51.448;7.646;2022-10-31T12:39:39;24.90;;;10.13;;
5831;SDS011;50943;51.448;7.646;2022-10-31T12:42:12;20.43;;;9.70;;
5831;SDS011;50943;51.448;7.646;2022-10-31T12:47:48;17.37;;;7.67;;
5831;SDS011;50943;51.448;7.646;2022-10-31T12:50:27;18.77;;;8.40;;
5831;SDS011;50943;51.448;7.646;2022-10-31T12:53:02;17.00;;;8.00;;
5831;SDS011;50943;51.448;7.646;2022-10-31T12:55:51;13.00;;;7.10;;
5831;SDS011;50943;51.448;7.646;2022-10-31T12:58:23;17.80;;;7.20;;
5831;SDS011;50943;51.448;7.646;2022-10-31T13:00:55;17.10;;;7.90;;
5831;SDS011;50943;51.448;7.646;2022-10-31T13:03:28;24.10;;;8.60;;
5831;SDS011;50943;51.448;7.646;2022-10-31T13:05:59;15.30;;;7.73;;
5831;SDS011;50943;51.448;7.646;2022-10-31T13:08:30;19.53;;;7.57;;
5831;SDS011;50943;51.448;7.646;2022-10-31T13:11:05;17.53;;;7.67;;
5831;SDS011;50943;51.448;7.646;2022-10-31T13:13:35;17.90;;;7.10;;
5831;SDS011;50943;51.448;7.646;2022-10-31T13:16:10;21.27;;;7.50;;
5831;SDS011;50943;51.448;7.646;2022-10-31T13:18:40;22.73;;;7.67;;
5831;SDS011;50943;51.448;7.646;2022-10-31T13:21:10;14.07;;;7.00;;
5831;SDS011;50943;51.448;7.646;2022-10-31T13:23:39;16.40;;;6.93;;
5831;SDS011;50943;51.448;7.646;2022-10-31T13:26:08;14.90;;;6.80;;
5831;SDS011;50943;51.448;7.646;2022-10-31T13:28:39;14.60;;;7.30;;
5831;SDS011;50943;51.448;7.646;2022-10-31T13:31:08;17.80;;;7.10;;
5831;SDS011;50943;51.448;7.646;2022-10-31T13:33:35;22.57;;;8.17;;
5831;SDS011;50943;51.448;7.646;2022-10-31T13:36:10;16.43;;;7.77;;
5831;SDS011;50943;51.448;7.646;2022-10-31T13:38:43;12.60;;;6.40;;
5831;SDS011;50943;51.448;7.646;2022-10-31T13:41:19;12.70;;;5.90;;
5831;SDS011;50943;51.448;7.646;2022-10-31T13:43:57;19.23;;;7.30;;
5831;SDS011;50943;51.448;7.646;2022-10-31T13:46:34;12.43;;;6.30;;
5831;SDS011;50943;51.448;7.646;2022-10-31T13:49:03;17.87;;;6.77;;
5831;SDS011;50943;51.448;7.646;2022-10-31T13:51:30;20.30;;;6.70;;
5831;SDS011;50943;51.448;7.646;2022-10-31T13:54:00;21.50;;;7.40;;
5831;SDS011;50943;51.448;7.646;2022-10-31T13:56:29;16.27;;;7.30;;
5831;SDS011;50943;51.448;7.646;2022-10-31T13:59:00;14.70;;;6.57;;
5831;SDS011;50943;51.448;7.646;2022-10-31T14:01:29;18.67;;;7.30;;
5831;SDS011;50943;51.448;7.646;2022-10-31T14:04:03;13.93;;;6.10;;
5831;SDS011;50943;51.448;7.646;2022-10-31T14:06:41;15.00;;;6.77;;
5831;SDS011;50943;51.448;7.646;2022-10-31T14:09:18;15.03;;;7.07;;
5831;SDS011;50943;51.448;7.646;2022-10-31T14:11:49;16.90;;;6.97;;
5831;SDS011;50943;51.448;7.646;2022-10-31T14:14:16;16.73;;;7.77;;
5831;SDS011;50943;51.448;7.646;2022-10-31T14:16:44;14.30;;;6.87;;
5831;SDS011;50943;51.448;7.646;2022-10-31T14:19:15;14.93;;;7.17;;
5831;SDS011;50943;51.448;7.646;2022-10-31T14:21:44;19.17;;;7.50;;
5831;SDS011;50943;51.448;7.646;2022-10-31T14:24:15;24.23;;;7.37;;
5831;SDS011;50943;51.448;7.646;2022-10-31T14:26:57;19.43;;;7.77;;
5831;SDS011;50943;51.448;7.646;2022-10-31T14:29:26;11.70;;;6.00;;
5831;SDS011;50943;51.448;7.646;2022-10-31T14:31:55;24.03;;;9.53;;
5831;SDS011;50943;51.448;7.646;2022-10-31T14:34:24;20.40;;;7.33;;
5831;SDS011;50943;51.448;7.646;2022-10-31T14:36:59;16.67;;;6.23;;
5831;SDS011;50943;51.448;7.646;2022-10-31T14:39:33;17.53;;;7.27;;
5831;SDS011;50943;51.448;7.646;2022-10-31T14:42:10;15.80;;;6.63;;
5831;SDS011;50943;51.448;7.646;2022-10-31T14:44:48;15.80;;;6.67;;
5831;SDS011;50943;51.448;7.646;2022-10-31T14:47:24;13.90;;;6.60;;
5831;SDS011;50943;51.448;7.646;2022-10-31T14:50:07;13.60;;;6.87;;
5831;SDS011;50943;51.448;7.646;2022-10-31T14:52:51;15.97;;;6.60;;
5831;SDS011;50943;51.448;7.646;2022-10-31T14:55:19;20.67;;;6.70;;
5831;SDS011;50943;51.448;7.646;2022-10-31T14:57:49;14.10;;;6.07;;
5831;SDS011;50943;51.448;7.646;2022-10-31T15:00:18;17.37;;;6.60;;
5831;SDS011;50943;51.448;7.646;2022-10-31T15:02:48;12.47;;;5.93;;
5831;SDS011;50943;51.448;7.646;2022-10-31T15:05:19;21.13;;;6.50;;